createdAt,value
2022-08-25T00:03:44.384Z,15.20
2022-08-25T00:08:08.044Z,15.20
2022-08-25T00:12:30.205Z,15.10
2022-08-25T00:16:52.724Z,15.10
2022-08-25T00:21:20.443Z,15.00
2022-08-25T00:25:42.624Z,15.00
2022-08-25T00:30:06.484Z,15.00
2022-08-25T00:34:37.243Z,14.90
2022-08-25T00:38:59.392Z,14.90
2022-08-25T00:43:22.546Z,14.90
2022-08-25T00:47:45.025Z,14.80
2022-08-25T00:52:36.543Z,14.80
2022-08-25T00:57:01.811Z,14.80
2022-08-25T01:01:24.639Z,14.80
2022-08-25T01:05:48.483Z,14.70
2022-08-25T01:10:12.283Z,14.70
2022-08-25T01:14:35.564Z,14.60
2022-08-25T01:19:00.768Z,14.60
2022-08-25T01:23:24.983Z,14.60
2022-08-25T01:27:47.143Z,14.60
2022-08-25T01:32:14.463Z,14.50
2022-08-25T01:36:37.023Z,14.50
2022-08-25T01:40:59.263Z,14.50
2022-08-25T01:45:22.708Z,14.40
2022-08-25T01:49:45.462Z,14.40
2022-08-25T01:54:07.903Z,14.40
2022-08-25T01:58:34.226Z,14.30
2022-08-25T02:02:56.463Z,14.30
2022-08-25T02:07:19.763Z,14.20
2022-08-25T02:11:46.862Z,14.20
2022-08-25T02:16:15.056Z,14.20
2022-08-25T02:20:38.374Z,14.20
2022-08-25T02:25:00.903Z,14.20
2022-08-25T02:29:23.442Z,14.30
2022-08-25T02:33:45.882Z,14.20
2022-08-25T02:38:08.139Z,14.20
2022-08-25T02:42:31.544Z,14.10
2022-08-25T02:46:54.165Z,14.10
2022-08-25T02:51:16.583Z,14.20
2022-08-25T02:55:40.584Z,14.10
2022-08-25T03:00:04.226Z,14.10
2022-08-25T03:04:26.787Z,14.10
2022-08-25T03:08:50.125Z,14.00
2022-08-25T03:13:12.965Z,14.00
2022-08-25T03:17:35.840Z,14.00
2022-08-25T03:22:00.005Z,14.00
2022-08-25T03:26:41.594Z,14.00
2022-08-25T03:31:05.221Z,13.90
2022-08-25T03:35:27.474Z,13.90
2022-08-25T03:39:52.823Z,13.90
2022-08-25T03:44:16.403Z,13.80
2022-08-25T03:48:38.924Z,13.90
2022-08-25T03:53:01.526Z,13.80
2022-08-25T03:57:24.139Z,13.90
2022-08-25T04:01:51.477Z,13.80
2022-08-25T04:06:18.947Z,13.80
2022-08-25T04:10:41.271Z,13.80
2022-08-25T04:15:06.582Z,13.80
2022-08-25T04:19:28.784Z,13.80
2022-08-25T04:23:53.568Z,13.80
2022-08-25T04:28:16.063Z,13.90
2022-08-25T04:32:38.524Z,14.00
2022-08-25T04:37:05.723Z,14.10
2022-08-25T04:41:29.464Z,14.20
2022-08-25T04:45:52.740Z,14.40
2022-08-25T04:50:15.103Z,14.60
2022-08-25T04:54:37.532Z,14.80
2022-08-25T04:59:05.904Z,15.90
2022-08-25T05:03:28.204Z,16.90
2022-08-25T05:07:50.624Z,18.60
2022-08-25T05:12:13.624Z,20.40
2022-08-25T05:16:36.068Z,22.00
2022-08-25T05:21:07.484Z,23.20
2022-08-25T05:25:29.822Z,24.20
2022-08-25T05:29:52.503Z,25.70
2022-08-25T05:34:15.675Z,27.40
2022-08-25T05:38:40.025Z,28.80
2022-08-25T05:43:02.384Z,29.80
2022-08-25T05:47:24.765Z,30.70
2022-08-25T05:51:47.069Z,31.70
2022-08-25T05:56:14.402Z,32.20
2022-08-25T06:00:37.731Z,33.10
2022-08-25T06:05:00.127Z,34.00
2022-08-25T06:09:23.344Z,34.30
2022-08-25T06:13:45.963Z,34.90
2022-08-25T06:18:08.481Z,35.90
2022-08-25T06:22:30.904Z,36.90
2022-08-25T06:26:53.883Z,38.00
2022-08-25T06:31:16.236Z,38.60
2022-08-25T06:35:43.245Z,38.20
2022-08-25T06:40:07.868Z,39.70
2022-08-25T06:44:30.744Z,41.20
2022-08-25T06:48:54.775Z,42.70
2022-08-25T06:53:17.406Z,43.50
2022-08-25T06:57:39.744Z,43.50
2022-08-25T07:02:04.429Z,42.70
2022-08-25T07:06:29.824Z,42.00
2022-08-25T07:10:52.224Z,40.50
2022-08-25T07:15:20.485Z,41.80
2022-08-25T07:19:43.944Z,43.10
2022-08-25T07:24:11.805Z,43.50
2022-08-25T07:28:34.185Z,41.50
2022-08-25T07:32:57.664Z,39.50
2022-08-25T07:37:38.265Z,39.40
2022-08-25T07:42:11.833Z,41.20
2022-08-25T07:46:34.734Z,41.80
2022-08-25T07:50:57.584Z,41.90
2022-08-25T07:55:20.866Z,43.30
2022-08-25T07:59:44.124Z,42.90
2022-08-25T08:04:06.568Z,42.10
2022-08-25T08:08:29.643Z,38.00
2022-08-25T08:12:55.264Z,38.10
2022-08-25T08:17:18.016Z,37.80
2022-08-25T08:21:40.444Z,38.00
2022-08-25T08:26:03.179Z,39.10
2022-08-25T08:30:26.897Z,39.60
2022-08-25T08:34:51.304Z,38.70
2022-08-25T08:39:14.047Z,38.80
2022-08-25T08:43:37.543Z,39.60
2022-08-25T08:48:53.036Z,38.60
2022-08-25T08:53:27.683Z,39.20
2022-08-25T08:58:00.445Z,39.30
2022-08-25T09:02:51.540Z,38.70
2022-08-25T09:07:30.395Z,38.70
2022-08-25T09:12:22.704Z,38.50
2022-08-25T09:17:01.465Z,41.00
2022-08-25T09:21:43.344Z,40.10
2022-08-25T09:26:23.304Z,41.20
2022-08-25T09:30:58.704Z,38.30
2022-08-25T09:35:27.694Z,36.10
2022-08-25T09:39:50.768Z,33.60
2022-08-25T09:44:28.083Z,34.80
2022-08-25T09:48:56.033Z,35.90
2022-08-25T09:53:21.929Z,36.70
2022-08-25T09:57:44.128Z,39.40
2022-08-25T10:02:27.463Z,37.80
2022-08-25T10:06:49.906Z,39.20
2022-08-25T10:11:38.243Z,39.90
2022-08-25T10:16:27.758Z,39.00
2022-08-25T10:21:01.970Z,37.70
2022-08-25T10:25:32.563Z,38.50
2022-08-25T10:30:06.262Z,35.40
2022-08-25T10:34:44.318Z,34.30
2022-08-25T10:39:34.016Z,36.00
2022-08-25T10:44:42.223Z,35.60
2022-08-25T10:49:42.684Z,32.90
2022-08-25T10:54:16.726Z,32.90
2022-08-25T10:59:25.304Z,35.40
2022-08-25T11:04:00.268Z,34.80
2022-08-25T11:08:57.983Z,34.00
2022-08-25T11:13:42.456Z,34.00
2022-08-25T11:18:15.663Z,35.10
2022-08-25T11:22:58.311Z,34.10
2022-08-25T11:27:36.164Z,33.40
2022-08-25T11:32:01.584Z,31.80
2022-08-25T11:36:37.905Z,31.20
2022-08-25T11:41:49.423Z,30.30
2022-08-25T11:46:35.622Z,30.10
2022-08-25T11:51:30.834Z,29.90
2022-08-25T11:55:59.193Z,29.50
2022-08-25T12:00:42.475Z,29.30
2022-08-25T12:05:32.692Z,29.00
2022-08-25T12:09:56.168Z,28.90
2022-08-25T12:14:28.142Z,29.20
2022-08-25T12:18:50.703Z,29.30
2022-08-25T12:23:14.698Z,29.70
2022-08-25T12:28:00.213Z,30.10
2022-08-25T12:32:46.545Z,29.20
2022-08-25T12:37:19.022Z,29.20
2022-08-25T12:46:25.996Z,29.00
2022-08-25T12:50:58.005Z,29.00
2022-08-25T12:55:22.643Z,29.50
2022-08-25T12:59:54.293Z,29.00
2022-08-25T13:04:35.383Z,28.50
2022-08-25T13:09:30.794Z,28.50
2022-08-25T13:14:27.038Z,29.30
2022-08-25T13:18:51.632Z,30.40
2022-08-25T13:23:22.243Z,29.40
2022-08-25T13:27:58.275Z,28.80
2022-08-25T13:32:34.407Z,28.50
2022-08-25T13:37:23.344Z,28.80
2022-08-25T13:41:58.223Z,29.10
2022-08-25T13:46:26.548Z,29.20
2022-08-25T13:50:51.786Z,29.20
2022-08-25T13:55:27.583Z,29.40
2022-08-25T14:00:00.364Z,29.50
2022-08-25T14:04:51.056Z,29.30
2022-08-25T14:09:27.922Z,29.30
2022-08-25T14:14:02.975Z,29.10
2022-08-25T14:18:33.375Z,29.30
2022-08-25T14:23:09.842Z,29.50
2022-08-25T14:27:38.761Z,29.50
2022-08-25T14:32:04.862Z,29.40
2022-08-25T14:36:31.085Z,29.30
2022-08-25T14:42:20.205Z,29.10
2022-08-25T14:46:49.363Z,28.70
2022-08-25T14:51:14.675Z,28.50
2022-08-25T14:55:37.464Z,28.60
2022-08-25T15:00:00.883Z,28.80
2022-08-25T15:04:28.423Z,29.00
2022-08-25T15:09:11.381Z,29.10
2022-08-25T15:13:34.363Z,29.00
2022-08-25T15:18:00.552Z,28.60
2022-08-25T15:22:23.879Z,28.30
2022-08-25T15:26:57.162Z,28.40
2022-08-25T15:31:22.006Z,28.50
2022-08-25T15:35:45.670Z,28.80
2022-08-25T15:40:09.209Z,28.70
2022-08-25T15:44:32.824Z,28.40
2022-08-25T15:48:57.729Z,28.40
2022-08-25T15:53:21.583Z,28.50
2022-08-25T15:57:45.054Z,28.40
2022-08-25T16:02:11.554Z,28.20
2022-08-25T16:06:39.004Z,28.10
2022-08-25T16:11:01.629Z,27.80
2022-08-25T16:15:28.622Z,27.40
2022-08-25T16:19:51.519Z,27.30
2022-08-25T16:24:14.519Z,27.20
2022-08-25T16:28:40.855Z,27.10
2022-08-25T16:33:09.802Z,27.10
2022-08-25T16:37:34.523Z,27.00
2022-08-25T16:41:57.251Z,27.00
2022-08-25T16:46:23.996Z,26.90
2022-08-25T16:50:46.465Z,26.90
2022-08-25T16:55:13.635Z,26.70
2022-08-25T16:59:36.384Z,26.60
2022-08-25T17:03:59.669Z,26.50
2022-08-25T17:08:29.020Z,26.40
2022-08-25T17:12:51.483Z,26.20
2022-08-25T17:17:14.505Z,26.10
2022-08-25T17:21:40.744Z,25.90
2022-08-25T17:26:12.995Z,25.90
2022-08-25T17:30:39.323Z,25.70
2022-08-25T17:35:01.823Z,25.50
2022-08-25T17:39:27.305Z,25.40
2022-08-25T17:43:49.724Z,25.30
2022-08-25T17:48:13.585Z,25.20
2022-08-25T17:52:35.982Z,25.00
2022-08-25T17:56:58.623Z,24.90
2022-08-25T18:01:28.204Z,24.70
2022-08-25T18:05:51.023Z,24.60
2022-08-25T18:10:14.363Z,24.50
2022-08-25T18:14:36.651Z,24.30
2022-08-25T18:18:59.273Z,24.20
2022-08-25T18:23:23.881Z,24.20
2022-08-25T18:27:46.469Z,24.10
2022-08-25T18:32:10.378Z,24.00
2022-08-25T18:36:37.665Z,23.90
2022-08-25T18:41:05.124Z,23.80
2022-08-25T18:45:33.351Z,23.70
2022-08-25T18:49:56.236Z,23.60
2022-08-25T18:54:23.718Z,23.50
2022-08-25T18:58:47.860Z,23.40
2022-08-25T19:03:14.277Z,23.30
2022-08-25T19:07:37.063Z,23.30
2022-08-25T19:12:03.655Z,23.20
2022-08-25T19:16:41.305Z,23.10
2022-08-25T19:21:03.688Z,22.90
2022-08-25T19:25:27.161Z,22.90
2022-08-25T19:29:56.076Z,22.70
2022-08-25T19:34:28.027Z,22.70
2022-08-25T19:38:53.862Z,22.60
2022-08-25T19:43:16.763Z,22.50
2022-08-25T19:47:41.743Z,22.50
2022-08-25T19:52:10.685Z,22.40
2022-08-25T19:56:36.429Z,22.30
2022-08-25T20:00:59.279Z,22.20
2022-08-25T20:05:24.240Z,22.10
2022-08-25T20:09:46.512Z,22.10
2022-08-25T20:14:31.466Z,22.00
2022-08-25T20:19:55.490Z,22.00
2022-08-25T20:24:56.178Z,21.90
2022-08-25T20:29:37.564Z,21.90
2022-08-25T20:39:13.963Z,21.70
2022-08-25T20:44:56.754Z,21.50
2022-08-25T20:49:50.196Z,21.40
2022-08-25T21:12:23.465Z,21.10
2022-08-25T21:16:58.021Z,20.90
2022-08-25T21:21:20.637Z,20.80
2022-08-25T21:25:43.325Z,20.80
2022-08-25T21:30:07.643Z,20.60
2022-08-25T21:34:30.236Z,20.60
2022-08-25T21:38:54.303Z,20.50
2022-08-25T21:43:18.573Z,20.40
2022-08-25T21:47:42.819Z,20.30
2022-08-25T21:52:05.211Z,20.30
2022-08-25T21:56:27.523Z,20.40
2022-08-25T22:00:50.256Z,20.30
2022-08-25T22:05:13.183Z,20.20
2022-08-25T22:09:39.054Z,20.10
2022-08-25T22:14:03.405Z,19.90
2022-08-25T22:18:27.565Z,19.80
2022-08-25T22:22:50.183Z,19.70
2022-08-25T22:27:15.451Z,19.70
2022-08-25T22:31:38.243Z,19.70
2022-08-25T22:36:00.424Z,19.60
2022-08-25T22:40:22.893Z,19.60
2022-08-25T22:44:45.684Z,19.50
2022-08-25T22:49:08.391Z,19.40
2022-08-25T22:53:30.623Z,19.30
2022-08-25T22:57:54.824Z,19.20
2022-08-25T23:02:17.604Z,19.20
2022-08-25T23:06:42.367Z,19.20
2022-08-25T23:11:05.564Z,19.20
2022-08-25T23:15:28.115Z,19.10
2022-08-25T23:19:50.307Z,19.00
2022-08-25T23:24:29.813Z,18.90
2022-08-25T23:28:53.948Z,18.80
2022-08-25T23:33:18.688Z,18.80
2022-08-25T23:37:42.603Z,18.80
2022-08-25T23:42:07.025Z,18.70
2022-08-25T23:46:29.865Z,18.60
2022-08-25T23:50:54.146Z,18.60
2022-08-25T23:55:16.872Z,18.60
2022-08-25T23:59:39.424Z,18.50
